SKUC/AUC METAR and TAF weather

Enter ICAO airport designator
Station Type Date Time Source
SKUC METAR 2022/05/23 14:00 UTC NOAA

SKUC 231400Z 13005KT 9999 SCT012 BKN100 26/25 Q1015 RMK A2998


Station Type Date Time Source
SKUC Decoded METAR 2022/05/23 14:00 UTC NOAA

Arauca / Santiago Perez, Colombia (SKUC) 07-04N 070-44W 128M
May 23, 2022 - 10:00 AM EDT / 2022.05.23 1400 UTC
Wind: from the SE (130 degrees) at 6 MPH (5 KT):0
Visibility: greater than 7 mile(s):0
Sky conditions: mostly cloudy
Temperature: 78 F (26 C)
Dew Point: 77 F (25 C)
Relative Humidity: 94%
Pressure (altimeter): 29.97 in. Hg (1015 hPa)
ob: SKUC 231400Z 13005KT 9999 SCT012 BKN100 26/25 Q1015 RMK A2998
cycle: 14

Station Type Date Time Source
SKUC TAF UTC NOAA

Error!

Example: see airport list